El Puerto de Santa Maria, Spain
Current Conditions -  °F | °C
As of 7:32 AM on Thursday 27 Nov 2014 (Local Time) from LERT Reporting Station
Thunderstorm Thunderstorm  
Wind Chill: 57°   Ceiling: 7000
Heat Index: 57°   Visibility: 3mi
Dew Point: 54°   Wind: 10mph
Humidity: 88%   Direction: 130°SE
Pressure: 29.53"   Gusts: NA
Location:  36.6°N, 6.23°W
Report Text: LERT 270632Z 13009KT 110V170 5000 TS SHRA SCT010 SCT025CB BKN07014/12 Q1000 NOSIG
Loading
Personal Weather Stations






























Interactive Weather Map New forecast layout! Learn more

10-Day Weather Forecast

Advertisements
Track Severe Weather on mobile